createdAt,value
2019-03-26T00:02:41.664Z,12.27
2019-03-26T00:05:29.657Z,11.07
2019-03-26T00:08:17.420Z,11.07
2019-03-26T00:11:05.441Z,11.07
2019-03-26T00:13:53.816Z,10.90
2019-03-26T00:16:42.168Z,10.43
2019-03-26T00:19:30.869Z,9.90
2019-03-26T00:22:19.057Z,11.03
2019-03-26T00:25:07.820Z,11.47
2019-03-26T00:27:56.150Z,10.90
2019-03-26T00:30:44.184Z,10.27
2019-03-26T00:33:36.673Z,10.47
2019-03-26T00:36:21.832Z,11.00
2019-03-26T00:39:10.294Z,11.47
2019-03-26T00:41:58.801Z,11.03
2019-03-26T00:44:46.872Z,10.93
2019-03-26T00:47:34.458Z,10.57
2019-03-26T00:50:22.456Z,10.63
2019-03-26T00:53:10.318Z,10.57
2019-03-26T00:55:58.472Z,11.33
2019-03-26T00:58:46.430Z,10.57
2019-03-26T01:01:34.633Z,10.37
2019-03-26T01:04:32.606Z,10.53
2019-03-26T01:07:12.738Z,10.83
2019-03-26T01:10:01.165Z,10.20
2019-03-26T01:12:49.494Z,11.23
2019-03-26T01:15:37.361Z,11.07
2019-03-26T01:18:25.560Z,10.27
2019-03-26T01:21:13.802Z,10.03
2019-03-26T01:24:02.020Z,10.33
2019-03-26T01:26:50.189Z,9.83
2019-03-26T01:29:38.592Z,11.10
2019-03-26T01:32:26.618Z,11.27
2019-03-26T01:35:15.297Z,11.03
2019-03-26T01:38:03.533Z,11.70
2019-03-26T01:40:51.936Z,10.97
2019-03-26T01:43:39.818Z,11.03
2019-03-26T01:46:27.850Z,10.50
2019-03-26T01:49:16.002Z,10.40
2019-03-26T01:52:04.282Z,9.77
2019-03-26T01:54:52.076Z,11.03
2019-03-26T01:57:40.086Z,11.33
2019-03-26T02:00:27.795Z,11.27
2019-03-26T02:03:16.033Z,10.73
2019-03-26T02:06:04.089Z,10.63
2019-03-26T02:08:52.481Z,10.30
2019-03-26T02:11:40.576Z,11.20
2019-03-26T02:14:28.503Z,10.77
2019-03-26T02:17:16.469Z,10.20
2019-03-26T02:20:04.982Z,10.57
2019-03-26T02:22:53.011Z,10.57
2019-03-26T02:25:41.228Z,11.30
2019-03-26T02:28:29.364Z,11.53
2019-03-26T02:31:17.612Z,10.93
2019-03-26T02:34:05.991Z,11.40
2019-03-26T02:36:54.171Z,11.30
2019-03-26T02:39:42.659Z,10.93
2019-03-26T02:42:31.190Z,11.50
2019-03-26T02:45:19.236Z,11.53
2019-03-26T02:48:06.987Z,11.67
2019-03-26T02:50:55.248Z,11.63
2019-03-26T02:53:43.445Z,11.30
2019-03-26T02:56:31.222Z,12.00
2019-03-26T02:59:19.146Z,12.57
2019-03-26T03:02:06.870Z,12.83
2019-03-26T03:04:54.882Z,11.47
2019-03-26T03:07:43.227Z,12.10
2019-03-26T03:10:31.511Z,12.70
2019-03-26T03:13:19.663Z,12.20
2019-03-26T03:16:08.152Z,12.43
2019-03-26T03:18:56.502Z,12.80
2019-03-26T03:21:44.668Z,13.13
2019-03-26T03:24:33.283Z,13.67
2019-03-26T03:27:21.737Z,12.87
2019-03-26T03:30:10.460Z,12.87
2019-03-26T03:32:58.506Z,11.87
2019-03-26T03:35:52.677Z,12.53
2019-03-26T03:38:36.706Z,13.10
2019-03-26T03:41:25.119Z,12.60
2019-03-26T03:44:13.451Z,12.60
2019-03-26T03:47:02.737Z,12.57
2019-03-26T03:49:51.173Z,11.60
2019-03-26T03:52:41.080Z,12.60
2019-03-26T03:55:30.343Z,12.77
2019-03-26T03:58:20.761Z,13.03
2019-03-26T04:01:09.028Z,12.87
2019-03-26T04:03:56.912Z,12.63
2019-03-26T04:06:44.966Z,12.17
2019-03-26T04:09:33.100Z,12.73
2019-03-26T04:12:21.719Z,13.17
2019-03-26T04:15:10.184Z,13.33
2019-03-26T04:17:57.946Z,14.03
2019-03-26T04:20:45.853Z,13.37
2019-03-26T04:23:34.341Z,13.40
2019-03-26T04:26:22.689Z,12.63
2019-03-26T04:29:10.822Z,12.73
2019-03-26T04:31:59.026Z,13.27
2019-03-26T04:34:47.203Z,13.10
2019-03-26T04:37:35.750Z,13.23
2019-03-26T04:40:23.720Z,13.03
2019-03-26T04:43:11.255Z,13.23
2019-03-26T04:45:59.539Z,13.83
2019-03-26T04:48:48.311Z,13.70
2019-03-26T04:51:36.720Z,15.00
2019-03-26T04:54:24.891Z,14.27
2019-03-26T04:57:13.075Z,13.40
2019-03-26T05:00:01.005Z,13.73
2019-03-26T05:02:49.425Z,13.47
2019-03-26T05:05:37.190Z,13.77
2019-03-26T05:08:25.287Z,12.70
2019-03-26T05:11:13.803Z,12.77
2019-03-26T05:14:02.138Z,12.50
2019-03-26T05:16:50.258Z,12.80
2019-03-26T05:19:38.541Z,11.73
2019-03-26T05:22:26.837Z,11.87
2019-03-26T05:25:15.281Z,11.77
2019-03-26T05:28:03.667Z,12.90
2019-03-26T05:30:51.764Z,13.77
2019-03-26T05:33:47.951Z,13.00
2019-03-26T05:36:36.422Z,13.70
2019-03-26T05:39:24.533Z,13.70
2019-03-26T05:42:12.649Z,14.33
2019-03-26T05:45:00.946Z,14.00
2019-03-26T05:47:49.155Z,13.60
2019-03-26T05:50:37.040Z,13.63
2019-03-26T05:53:25.195Z,13.90
2019-03-26T05:56:13.738Z,14.43
2019-03-26T05:59:01.770Z,13.83
2019-03-26T06:01:49.925Z,14.73
2019-03-26T06:04:38.443Z,15.20
2019-03-26T06:07:26.385Z,17.33
2019-03-26T06:10:14.804Z,15.80
2019-03-26T06:13:02.748Z,16.50
2019-03-26T06:15:50.887Z,14.07
2019-03-26T06:18:39.797Z,14.30
2019-03-26T06:21:27.832Z,14.10
2019-03-26T06:24:15.491Z,14.53
2019-03-26T06:27:51.982Z,12.57
2019-03-26T06:30:40.092Z,13.47
2019-03-26T06:33:27.857Z,13.43
2019-03-26T06:36:16.032Z,14.17
2019-03-26T06:39:05.774Z,14.17
2019-03-26T06:41:54.020Z,13.03
2019-03-26T06:44:42.238Z,13.63
2019-03-26T06:47:30.418Z,13.57
2019-03-26T06:50:19.189Z,13.37
2019-03-26T06:53:07.499Z,13.90
2019-03-26T06:55:55.415Z,12.97
2019-03-26T06:58:43.235Z,12.73
2019-03-26T07:01:31.418Z,12.20
2019-03-26T07:04:19.728Z,12.80
2019-03-26T07:07:07.943Z,12.60
2019-03-26T07:09:55.821Z,11.83
2019-03-26T07:12:43.708Z,13.27
2019-03-26T07:15:32.213Z,13.67
2019-03-26T07:18:20.705Z,12.93
2019-03-26T07:21:08.991Z,13.13
2019-03-26T07:23:57.136Z,13.23
2019-03-26T07:26:45.134Z,14.17
2019-03-26T07:29:33.257Z,13.17
2019-03-26T07:32:21.166Z,13.20
2019-03-26T07:35:09.392Z,12.80
2019-03-26T07:37:57.488Z,12.93
2019-03-26T07:40:46.158Z,12.50
2019-03-26T07:43:34.616Z,14.17
2019-03-26T07:46:22.979Z,14.13
2019-03-26T07:49:11.271Z,13.57
2019-03-26T07:52:42.023Z,12.80
2019-03-26T07:55:43.844Z,13.60
2019-03-26T07:59:06.764Z,13.70
2019-03-26T08:01:55.117Z,12.47
2019-03-26T08:04:43.336Z,13.80
2019-03-26T08:07:31.063Z,12.67
2019-03-26T08:10:19.425Z,13.30
2019-03-26T08:13:07.969Z,12.60
2019-03-26T08:15:56.116Z,13.30
2019-03-26T08:18:44.429Z,12.40
2019-03-26T08:21:32.927Z,12.60
2019-03-26T08:24:20.851Z,12.30
2019-03-26T08:27:08.829Z,12.30
2019-03-26T08:29:57.332Z,12.47
2019-03-26T08:33:15.551Z,12.57
2019-03-26T08:36:05.865Z,13.47
2019-03-26T08:38:53.805Z,11.90
2019-03-26T08:41:42.665Z,12.93
2019-03-26T08:44:31.146Z,12.13
2019-03-26T08:47:19.487Z,12.00
2019-03-26T08:50:07.959Z,12.20
2019-03-26T08:52:56.182Z,11.47
2019-03-26T08:55:43.826Z,10.97
2019-03-26T08:58:31.939Z,11.17
2019-03-26T09:01:19.933Z,11.83
2019-03-26T09:04:07.823Z,11.90
2019-03-26T09:06:55.530Z,11.13
2019-03-26T09:09:43.170Z,10.97
2019-03-26T09:12:31.695Z,11.30
2019-03-26T09:15:20.570Z,10.90
2019-03-26T09:18:08.848Z,11.13
2019-03-26T09:20:56.756Z,10.80
2019-03-26T09:23:45.084Z,10.70
2019-03-26T09:26:33.637Z,11.37
2019-03-26T09:29:21.802Z,10.60
2019-03-26T09:32:09.577Z,10.30
2019-03-26T09:34:57.605Z,11.23
2019-03-26T09:37:46.126Z,10.47
2019-03-26T09:40:34.068Z,10.83
2019-03-26T09:43:21.924Z,10.77
2019-03-26T09:46:10.127Z,9.67
2019-03-26T09:48:58.291Z,10.03
2019-03-26T09:51:46.202Z,9.83
2019-03-26T09:54:34.257Z,9.77
2019-03-26T09:57:22.165Z,8.83
2019-03-26T10:00:10.763Z,9.60
2019-03-26T10:02:58.721Z,9.30
2019-03-26T10:05:46.766Z,9.70
2019-03-26T10:08:35.183Z,9.77
2019-03-26T10:11:24.386Z,9.67
2019-03-26T10:14:12.249Z,9.93
2019-03-26T10:17:00.514Z,10.67
2019-03-26T10:19:48.389Z,10.80
2019-03-26T10:22:36.565Z,10.63
2019-03-26T10:25:24.645Z,10.77
2019-03-26T10:28:12.856Z,10.37
2019-03-26T10:31:01.374Z,14.23
2019-03-26T10:33:49.733Z,11.83
2019-03-26T10:36:37.875Z,10.90
2019-03-26T10:39:25.798Z,10.10
2019-03-26T10:42:13.946Z,10.67
2019-03-26T10:45:01.938Z,11.20
2019-03-26T10:47:50.050Z,9.83
2019-03-26T10:50:37.929Z,10.57
2019-03-26T10:53:25.979Z,10.47
2019-03-26T10:56:14.666Z,9.37
2019-03-26T10:59:04.274Z,10.20
2019-03-26T11:01:52.520Z,9.13
2019-03-26T11:04:40.366Z,8.27
2019-03-26T11:07:28.386Z,8.70
2019-03-26T11:10:16.660Z,8.00
2019-03-26T11:13:04.689Z,8.50
2019-03-26T11:15:52.828Z,8.07
2019-03-26T11:18:41.731Z,7.53
2019-03-26T11:21:30.131Z,7.83
2019-03-26T11:24:17.927Z,8.50
2019-03-26T11:27:06.150Z,8.20
2019-03-26T11:29:54.622Z,8.43
2019-03-26T11:32:42.842Z,8.43
2019-03-26T11:35:31.041Z,8.70
2019-03-26T11:38:19.030Z,9.17
2019-03-26T11:41:07.772Z,8.97
2019-03-26T11:43:55.695Z,9.17
2019-03-26T11:46:44.019Z,9.40
2019-03-26T11:49:32.361Z,9.60
2019-03-26T11:52:20.298Z,8.87
2019-03-26T11:55:08.316Z,10.27
2019-03-26T11:57:56.076Z,8.90
2019-03-26T12:00:44.383Z,9.03
2019-03-26T12:03:32.931Z,8.93
2019-03-26T12:06:21.105Z,9.30
2019-03-26T12:09:09.890Z,9.00
2019-03-26T12:11:58.204Z,9.43
2019-03-26T12:14:46.416Z,9.00
2019-03-26T12:17:34.354Z,8.50
2019-03-26T12:20:22.337Z,8.60
2019-03-26T12:23:10.488Z,9.17
2019-03-26T12:25:58.645Z,9.03
2019-03-26T12:28:46.920Z,8.73
2019-03-26T12:31:35.180Z,9.30
2019-03-26T12:34:23.075Z,9.90
2019-03-26T12:37:11.075Z,8.17
2019-03-26T12:40:00.545Z,7.97
2019-03-26T12:42:48.399Z,7.23
2019-03-26T12:45:36.519Z,6.63
2019-03-26T12:48:25.192Z,6.60
2019-03-26T12:51:13.630Z,7.07
2019-03-26T12:54:01.639Z,6.67
2019-03-26T12:56:49.678Z,6.73
2019-03-26T12:59:37.805Z,6.30
2019-03-26T13:02:26.125Z,7.47
2019-03-26T13:05:14.440Z,7.43
2019-03-26T13:08:02.625Z,8.00
2019-03-26T13:10:53.757Z,6.87
2019-03-26T13:13:40.752Z,7.20
2019-03-26T13:16:28.653Z,7.17
2019-03-26T13:19:17.014Z,6.57
2019-03-26T13:22:05.440Z,5.87
2019-03-26T13:24:53.712Z,6.00
2019-03-26T13:27:41.683Z,5.77
2019-03-26T13:30:29.424Z,5.50
2019-03-26T13:33:17.475Z,4.90
2019-03-26T13:36:06.855Z,4.50
2019-03-26T13:38:54.765Z,4.90
2019-03-26T13:41:42.764Z,4.93
2019-03-26T13:44:30.689Z,4.47
2019-03-26T13:47:18.929Z,5.07
2019-03-26T13:50:07.566Z,4.80
2019-03-26T13:52:55.438Z,4.87
2019-03-26T13:55:43.148Z,5.43
2019-03-26T13:58:30.826Z,5.60
2019-03-26T14:01:19.110Z,5.33
2019-03-26T14:04:07.304Z,4.83
2019-03-26T14:06:55.238Z,5.43
2019-03-26T14:09:44.068Z,5.47
2019-03-26T14:12:32.269Z,4.93
2019-03-26T14:15:20.573Z,4.77
2019-03-26T14:18:08.670Z,5.07
2019-03-26T14:20:56.297Z,4.67
2019-03-26T14:23:45.370Z,4.73
2019-03-26T14:26:33.233Z,4.30
2019-03-26T14:29:20.951Z,4.57
2019-03-26T14:32:09.631Z,3.90
2019-03-26T14:34:57.877Z,4.33
2019-03-26T14:37:51.486Z,3.77
2019-03-26T14:40:36.497Z,3.83
2019-03-26T14:43:24.654Z,6.10
2019-03-26T14:46:12.856Z,4.37
2019-03-26T14:49:00.598Z,4.47
2019-03-26T14:51:49.031Z,4.30
2019-03-26T14:54:37.539Z,4.60
2019-03-26T14:57:25.819Z,5.33
2019-03-26T15:00:13.895Z,5.30
2019-03-26T15:03:02.611Z,5.23
2019-03-26T15:05:51.034Z,4.90
2019-03-26T15:08:39.585Z,5.30
2019-03-26T15:11:27.457Z,4.93
2019-03-26T15:14:16.454Z,5.03
2019-03-26T15:17:04.349Z,5.60
2019-03-26T15:19:54.968Z,5.00
2019-03-26T15:22:42.012Z,4.50
2019-03-26T15:25:48.904Z,4.30
2019-03-26T15:28:37.280Z,4.17
2019-03-26T15:31:26.047Z,4.23
2019-03-26T15:34:14.804Z,4.33
2019-03-26T15:37:03.358Z,4.80
2019-03-26T15:39:51.925Z,5.20
2019-03-26T15:42:40.170Z,5.73
2019-03-26T15:45:28.661Z,5.53
2019-03-26T15:48:16.519Z,6.07
2019-03-26T15:51:04.668Z,6.03
2019-03-26T15:53:52.600Z,6.63
2019-03-26T15:56:41.035Z,6.07
2019-03-26T15:59:29.086Z,5.83
2019-03-26T16:02:17.309Z,6.47
2019-03-26T16:05:06.488Z,6.30
2019-03-26T16:07:55.190Z,7.00
2019-03-26T16:10:44.005Z,6.97
2019-03-26T16:13:35.499Z,9.90
2019-03-26T16:16:21.979Z,8.50
2019-03-26T16:19:09.970Z,8.30
2019-03-26T16:21:58.844Z,8.00
2019-03-26T16:24:47.065Z,7.57
2019-03-26T16:27:35.280Z,7.30
2019-03-26T16:30:23.257Z,8.00
2019-03-26T16:33:11.853Z,7.27
2019-03-26T16:36:00.065Z,8.07
2019-03-26T16:38:48.336Z,7.63
2019-03-26T16:41:48.441Z,7.77
2019-03-26T16:44:25.722Z,8.23
2019-03-26T16:47:13.861Z,8.87
2019-03-26T16:50:01.557Z,8.73
2019-03-26T16:52:49.897Z,9.70
2019-03-26T16:55:38.147Z,7.97
2019-03-26T16:58:26.337Z,10.63
2019-03-26T17:01:14.333Z,9.67
2019-03-26T17:04:02.578Z,10.27
2019-03-26T17:06:50.903Z,11.20
2019-03-26T17:09:39.129Z,10.90
2019-03-26T17:12:27.284Z,10.67
2019-03-26T17:15:15.943Z,10.80
2019-03-26T17:18:04.220Z,11.17
2019-03-26T17:20:52.673Z,9.93
2019-03-26T17:23:40.996Z,10.90
2019-03-26T17:26:29.346Z,10.67
2019-03-26T17:29:17.346Z,11.37
2019-03-26T17:32:05.341Z,10.63
2019-03-26T17:34:53.291Z,10.90
2019-03-26T17:37:59.392Z,11.10
2019-03-26T17:40:38.930Z,11.63
2019-03-26T17:43:27.508Z,10.83
2019-03-26T17:46:15.496Z,11.03
2019-03-26T17:49:03.749Z,10.53
2019-03-26T17:51:52.170Z,11.00
2019-03-26T17:54:40.271Z,11.23
2019-03-26T17:57:28.844Z,10.83
2019-03-26T18:00:18.847Z,10.60
2019-03-26T18:03:07.386Z,10.50
2019-03-26T18:05:55.673Z,10.77
2019-03-26T18:08:43.997Z,10.97
2019-03-26T18:11:32.190Z,10.70
2019-03-26T18:14:20.181Z,10.67
2019-03-26T18:17:13.753Z,11.77
2019-03-26T18:20:02.308Z,10.70
2019-03-26T18:22:50.537Z,10.40
2019-03-26T18:25:39.374Z,10.53
2019-03-26T18:28:27.752Z,10.17
2019-03-26T18:31:16.030Z,9.83
2019-03-26T18:34:04.349Z,10.73
2019-03-26T18:36:53.315Z,9.83
2019-03-26T18:39:40.954Z,10.53
2019-03-26T18:42:29.510Z,10.40
2019-03-26T18:45:18.763Z,9.40
2019-03-26T18:48:22.680Z,8.93
2019-03-26T18:51:14.108Z,9.03
2019-03-26T18:54:11.569Z,9.47
2019-03-26T18:57:00.388Z,8.90
2019-03-26T18:59:48.717Z,8.70
2019-03-26T19:02:37.251Z,9.33
2019-03-26T19:05:45.738Z,8.43
2019-03-26T19:08:39.706Z,10.30
2019-03-26T19:11:38.445Z,9.57
2019-03-26T19:14:26.816Z,9.00
2019-03-26T19:17:15.085Z,8.93
2019-03-26T19:20:03.752Z,9.43
2019-03-26T19:22:51.861Z,9.33
2019-03-26T19:25:41.011Z,10.07
2019-03-26T19:28:28.830Z,9.80
2019-03-26T19:31:17.372Z,9.87
2019-03-26T19:34:05.610Z,9.87
2019-03-26T19:36:53.619Z,10.17
2019-03-26T19:39:41.484Z,10.27
2019-03-26T19:42:29.370Z,10.13
2019-03-26T19:45:17.946Z,9.67
2019-03-26T19:48:06.493Z,9.83
2019-03-26T19:50:54.109Z,9.87
2019-03-26T19:53:42.169Z,10.00
2019-03-26T19:56:30.066Z,10.10
2019-03-26T19:59:18.618Z,10.30
2019-03-26T20:02:06.978Z,10.53
2019-03-26T20:04:54.971Z,9.93
2019-03-26T20:07:43.354Z,9.90
2019-03-26T20:10:31.574Z,10.30
2019-03-26T20:13:24.556Z,10.17
2019-03-26T20:16:09.703Z,10.07
2019-03-26T20:18:57.599Z,10.73
2019-03-26T20:21:45.274Z,9.97
2019-03-26T20:24:33.269Z,9.80
2019-03-26T20:27:20.930Z,10.60
2019-03-26T20:30:11.158Z,11.20
2019-03-26T20:32:59.870Z,11.00
2019-03-26T20:36:02.635Z,9.93
2019-03-26T20:39:04.294Z,9.30
2019-03-26T20:42:13.428Z,10.07
2019-03-26T20:45:07.904Z,9.57
2019-03-26T20:48:00.990Z,10.07
2019-03-26T20:50:51.577Z,11.73
2019-03-26T20:56:56.577Z,10.50
2019-03-26T21:00:01.224Z,10.73
2019-03-26T21:03:22.074Z,10.00
2019-03-26T21:06:16.584Z,10.50
2019-03-26T21:09:06.030Z,10.63
2019-03-26T21:11:54.240Z,10.37
2019-03-26T21:14:42.438Z,10.40
2019-03-26T21:17:31.049Z,9.63
2019-03-26T21:20:19.425Z,10.23
2019-03-26T21:23:07.251Z,10.00
2019-03-26T21:25:57.369Z,10.30
2019-03-26T21:28:45.606Z,11.50
2019-03-26T21:31:33.620Z,10.27
2019-03-26T21:34:30.236Z,10.30
2019-03-26T21:37:11.164Z,10.17
2019-03-26T21:39:59.085Z,10.90
2019-03-26T21:42:47.302Z,9.80
2019-03-26T21:45:36.838Z,10.87
2019-03-26T21:48:34.037Z,10.53
2019-03-26T21:51:43.315Z,10.67
2019-03-26T21:54:57.853Z,10.83
2019-03-26T21:57:50.713Z,10.30
2019-03-26T22:00:44.945Z,10.70
2019-03-26T22:03:42.563Z,11.00
2019-03-26T22:06:30.551Z,11.00
2019-03-26T22:10:04.833Z,11.03
2019-03-26T22:20:13.797Z,10.70
2019-03-26T22:23:07.749Z,9.87
2019-03-26T22:25:55.906Z,10.87
2019-03-26T22:28:43.825Z,10.93
2019-03-26T22:31:31.462Z,10.53
2019-03-26T22:34:19.712Z,12.10
2019-03-26T22:37:07.478Z,12.03
2019-03-26T22:39:55.527Z,11.63
2019-03-26T22:42:43.373Z,11.67
2019-03-26T22:45:31.781Z,12.23
2019-03-26T22:48:19.788Z,12.13
2019-03-26T22:51:08.042Z,12.53
2019-03-26T22:53:55.625Z,12.37
2019-03-26T22:56:43.673Z,12.07
2019-03-26T22:59:31.765Z,12.93
2019-03-26T23:02:19.844Z,12.40
2019-03-26T23:05:09.007Z,12.60
2019-03-26T23:07:57.200Z,12.47
2019-03-26T23:10:45.445Z,13.00
2019-03-26T23:13:33.650Z,13.13
2019-03-26T23:16:22.038Z,13.20
2019-03-26T23:19:10.104Z,13.43
2019-03-26T23:21:58.565Z,13.67
2019-03-26T23:24:46.479Z,12.37
2019-03-26T23:27:34.708Z,13.20
2019-03-26T23:30:22.754Z,13.50
2019-03-26T23:33:10.979Z,13.17
2019-03-26T23:35:59.087Z,12.80
2019-03-26T23:38:47.274Z,13.30
2019-03-26T23:41:35.446Z,12.47
2019-03-26T23:44:26.180Z,12.73
2019-03-26T23:47:12.993Z,13.17
2019-03-26T23:50:01.485Z,13.47
2019-03-26T23:52:49.334Z,13.23
2019-03-26T23:55:37.667Z,13.90
2019-03-26T23:58:25.931Z,13.90
